Scroll down
FLIGHT INFORMATION
American Airlines

AAL1413

Diverted

KFLL
 KSTL
[Original Destination: KSTL ]
DATE: 2021-08-10
GATE:  -
GATE DEPARTURE: 21:23
TAKEOFF: 21:33
DATE: 2021-08-11
GATE:  -
LANDING: 00:19
GATE ARRIVAL: 00:23
FLIGHT DATA
Crew: 
Speed: 
489 kts
Altitude: 
28,016 ft
Stage Length: 
1,029.0 nm
Block Time: 
3 hrs
Flight Time: 
2.8 hrs
Fuel Used: 
22,353 lb
Cleared Route: KFLL JUMAR HAPOR SECOR ATONE ARKES SEAZY ETORE DEEDA VUZ LOBBS GOOGY MEM ZESAM BSIDE FTZ GROOV CASHN VINCA MAROC TRICH TRTLL HIHRY RINNO JORJO MONKZ TONIE HAZIL RW28C
TRACK DATA
50,000 ft 1,000 kts
AIRCRAFT INFO AND CUMULATIVE STATS
Aircraft Type: 
B738BW
Registration: 
SELCAL: 
BGFM
MSN/LN: 
33344 / 6345
Operator: 
Total Flights: 
3
Total Block Time: 
7.1 hrs
Total Flight Time: 
6.2 hrs
Total Fuel Used: 
45,594 lb
DATALINK LOG | Newest first | Current as of: 2022-10-04 19:34:23
LABEL SEQUENCE CONTENT Dn/Up
QD264600:23 9.4▼ Dn
QC224200:19▼ Dn
QB363321:33▼ Dn
QA252221:23 31.8▼ Dn
2U1955KFLL 102053Z 08009KT 10SM FEW032 FEW090 SCT250 32/24 A3010 RMK AO2 SLP192 T03170244 56010▲ Up
2S2120KFLL▼ Dn
2U1848KFLL 102053Z 08009KT 10SM FEW032 FEW090 SCT250 32/24 A3010 RMK AO2 SLP192 T03170244 56010▲ Up
2S2019KFLL▼ Dn
A31121CLEARED TO KORD VIA ARKES4 ARKES SEAZY ETORE DEEDA Q116 VUZ J41 MEM J187 FTZ TRTLL6. SQUAWK 1561.▲ Up
5U0946KORD 110109Z 31020G35KT 1 1/2SM +TSRA BKN020CB 33/24 A2982▲ Up
2U0943KFLL 102053Z 08009KT 10SM FEW032 FEW090 SCT250 32/24 A3010 RMK AO2 SLP192 T03170244 56010▲ Up
5S1119KORD▼ Dn
2S1118KFLL▼ Dn
Q01010[LINK ACK]▲ Up
Q01010[LINK TEST]▼ Dn


AIRCRAFT HISTORY
FLIGHT DATE FLIGHT NO. ORIGIN DESTINATION CLEARED ROUTE BLOCK TIME FLIGHT TIME FUEL USED PILOT
2021-08-15AAL922KORD KMIA KORD CMSKY CARYN CYBIL PXV BNA ACORI BULZI SNAPY NICKI BITNY ENDEW DANSE FARPO BETTL MATCY RAKLE HARAP FROGZ ARRTT ASPPN PBJAY MABYB ACERE LLEGG COPRA RW08R3 hrs2.7 hrs16,991 lbGeorge
2021-08-14AAL4996KSTL KORD KSTL FUNKE BEART GMSKI KSHEE LEBOY CASHN VINCA MAROC KELTS FNBAR TRIDE SHAIN RAGSS JUMPN NUNWS RRUDA RW10C1.1 hrs0.8 hrs6,250 lbGeorge
2021-08-10AAL1413KFLL KSTL KFLL JUMAR HAPOR SECOR ATONE ARKES SEAZY ETORE DEEDA VUZ LOBBS GOOGY MEM ZESAM BSIDE FTZ GROOV CASHN VINCA MAROC TRICH TRTLL HIHRY RINNO JORJO MONKZ TONIE HAZIL RW28C3 hrs2.8 hrs22,353 lbGeorge